Time;durP1;ratioP1;P1;durP2;ratioP2;P2;SDS_P1;SDS_P2;PMS_P1;PMS_P2;Temp;Humidity;BMP_temperature;BMP_pressure;BME280_temperature;BME280_humidity;BME280_pressure;Samples;Min_cycle;Max_cycle;Signal;HPM_P1;HPM_P2
2021/05/31 00:00:45;;;;;;;4.40;1.97;;;;;;;;;;5073285;28;20377;-68
2021/05/31 00:03:11;;;;;;;3.87;1.10;;;;;;;;;;5073861;28;20465;-69
2021/05/31 00:05:37;;;;;;;1.90;1.33;;;;;;;;;;5073904;28;20432;-69
2021/05/31 00:08:03;;;;;;;3.67;1.10;;;;;;;;;;5073658;28;20397;-68
2021/05/31 00:10:29;;;;;;;2.77;1.40;;;;;;;;;;5072807;28;20434;-69
2021/05/31 00:12:55;;;;;;;2.93;1.77;;;;;;;;;;5073599;28;20402;-69
2021/05/31 00:15:21;;;;;;;1.83;0.80;;;;;;;;;;5073544;28;20437;-69
2021/05/31 00:17:48;;;;;;;4.90;4.03;;;;;;;;;;5073551;28;20402;-69
2021/05/31 00:20:16;;;;;;;2.13;1.83;;;;;;;;;;5072605;28;20373;-69
2021/05/31 00:22:42;;;;;;;2.20;1.00;;;;;;;;;;5035498;28;20392;-69
2021/05/31 00:25:08;;;;;;;1.77;1.63;;;;;;;;;;5053376;28;20430;-70
2021/05/31 00:27:35;;;;;;;1.83;1.70;;;;;;;;;;5053266;28;20468;-69
2021/05/31 00:30:01;;;;;;;1.70;1.50;;;;;;;;;;5052320;28;20461;-69
2021/05/31 00:32:27;;;;;;;3.27;1.77;;;;;;;;;;5053129;28;20389;-68
2021/05/31 00:34:53;;;;;;;1.50;1.00;;;;;;;;;;5052603;28;20415;-69
2021/05/31 00:37:19;;;;;;;2.17;1.77;;;;;;;;;;5052981;28;20771;-69
2021/05/31 00:39:45;;;;;;;3.00;2.13;;;;;;;;;;5052439;28;20840;-69
2021/05/31 00:42:11;;;;;;;1.83;1.40;;;;;;;;;;5053096;28;20515;-69
2021/05/31 00:44:37;;;;;;;2.10;1.10;;;;;;;;;;5052684;28;20433;-69
2021/05/31 00:47:04;;;;;;;4.10;1.27;;;;;;;;;;5052968;28;20410;-69
2021/05/31 00:49:36;;;;;;;1.90;1.33;;;;;;;;;;5051953;28;20454;-69
2021/05/31 00:52:03;;;;;;;4.33;1.47;;;;;;;;;;5052605;28;20415;-69
2021/05/31 00:54:28;;;;;;;1.87;1.63;;;;;;;;;;5052697;28;20599;-68
2021/05/31 00:56:54;;;;;;;5.50;1.43;;;;;;;;;;5053678;28;21116;-69
2021/05/31 00:59:20;;;;;;;3.97;1.47;;;;;;;;;;5071704;28;20479;-69
2021/05/31 01:01:48;;;;;;;3.50;1.50;;;;;;;;;;5054596;28;20415;-68
2021/05/31 01:04:14;;;;;;;2.17;1.10;;;;;;;;;;5072174;28;20381;-69
2021/05/31 01:06:43;;;;;;;2.03;1.43;;;;;;;;;;5072495;28;20400;-68
2021/05/31 01:09:12;;;;;;;4.53;1.73;;;;;;;;;;5071366;28;20412;-68
2021/05/31 01:12:01;;;;;;;2.60;1.67;;;;;;;;;;5072525;28;20475;-69
2021/05/31 01:14:35;;;;;;;2.37;1.77;;;;;;;;;;5072412;28;20505;-69
2021/05/31 01:17:01;;;;;;;3.33;2.17;;;;;;;;;;5072237;28;20446;-69
2021/05/31 01:19:36;;;;;;;2.10;1.47;;;;;;;;;;5071341;28;20565;-69
2021/05/31 01:22:04;;;;;;;1.87;1.77;;;;;;;;;;5050230;28;20417;-68
2021/05/31 01:24:49;;;;;;;7.53;2.20;;;;;;;;;;5052156;28;20445;-68
2021/05/31 01:27:21;;;;;;;3.43;1.10;;;;;;;;;;5052030;28;20420;-69
2021/05/31 01:29:52;;;;;;;1.57;1.10;;;;;;;;;;5051274;28;20473;-69
2021/05/31 01:32:20;;;;;;;3.20;1.60;;;;;;;;;;5034764;28;20845;-68
2021/05/31 01:34:46;;;;;;;2.87;1.50;;;;;;;;;;5051884;28;20442;-68
2021/05/31 01:37:11;;;;;;;4.63;2.00;;;;;;;;;;5052067;28;20407;-68
2021/05/31 01:39:38;;;;;;;5.50;1.30;;;;;;;;;;5051148;28;20441;-68
2021/05/31 01:42:05;;;;;;;4.10;1.80;;;;;;;;;;5051777;28;20403;-67
2021/05/31 01:44:32;;;;;;;1.40;0.70;;;;;;;;;;5052051;28;20791;-69
2021/05/31 01:46:58;;;;;;;1.47;1.37;;;;;;;;;;5051831;28;20395;-69
2021/05/31 01:49:24;;;;;;;2.30;2.10;;;;;;;;;;5050840;28;20842;-68
2021/05/31 01:51:50;;;;;;;2.33;2.13;;;;;;;;;;5049983;28;20454;-68
2021/05/31 01:54:17;;;;;;;3.10;1.23;;;;;;;;;;5041098;28;20492;-68
2021/05/31 01:56:45;;;;;;;1.00;0.80;;;;;;;;;;5049955;28;20804;-68
2021/05/31 01:59:11;;;;;;;1.07;0.97;;;;;;;;;;5049826;28;20413;-68
2021/05/31 02:01:39;;;;;;;3.53;1.77;;;;;;;;;;5050607;28;20407;-68
2021/05/31 02:04:04;;;;;;;1.97;1.47;;;;;;;;;;5033258;28;20429;-68
2021/05/31 02:06:31;;;;;;;4.93;1.90;;;;;;;;;;5051408;28;20388;-68
2021/05/31 02:08:57;;;;;;;3.33;0.80;;;;;;;;;;5033200;28;20454;-68
2021/05/31 02:11:29;;;;;;;1.23;1.00;;;;;;;;;;5050673;28;20928;-68
2021/05/31 02:13:58;;;;;;;2.77;1.47;;;;;;;;;;5051390;28;20399;-68
2021/05/31 02:16:28;;;;;;;2.43;1.40;;;;;;;;;;5051023;28;20914;-68
2021/05/31 02:18:55;;;;;;;1.43;1.20;;;;;;;;;;5050805;28;20406;-68
2021/05/31 02:21:22;;;;;;;2.47;1.47;;;;;;;;;;5049299;28;20441;-68
2021/05/31 02:23:49;;;;;;;6.03;3.53;;;;;;;;;;5069755;28;20426;-68
2021/05/31 02:26:17;;;;;;;3.73;1.50;;;;;;;;;;5070392;28;20422;-68
2021/05/31 02:28:44;;;;;;;2.53;1.90;;;;;;;;;;5069763;28;20380;-68
2021/05/31 02:31:10;;;;;;;2.00;1.57;;;;;;;;;;5070380;28;20489;-67
2021/05/31 02:33:36;;;;;;;2.00;1.47;;;;;;;;;;5070986;28;20426;-68
2021/05/31 02:36:03;;;;;;;2.37;1.47;;;;;;;;;;5075994;28;20460;-72
2021/05/31 02:38:30;;;;;;;2.17;0.80;;;;;;;;;;5077031;28;20401;-72
2021/05/31 02:40:56;;;;;;;4.20;0.80;;;;;;;;;;5075820;28;20394;-72
2021/05/31 02:43:22;;;;;;;1.73;1.10;;;;;;;;;;5076922;28;20403;-72
2021/05/31 02:45:48;;;;;;;2.00;1.23;;;;;;;;;;5077645;28;20857;-72
2021/05/31 02:48:14;;;;;;;1.80;1.00;;;;;;;;;;5076566;28;20416;-72
2021/05/31 02:50:39;;;;;;;1.47;1.00;;;;;;;;;;5074397;28;20461;-71
2021/05/31 02:53:05;;;;;;;1.70;1.40;;;;;;;;;;5076745;28;20405;-71
2021/05/31 02:55:33;;;;;;;1.70;0.97;;;;;;;;;;5076618;28;20403;-71
2021/05/31 02:57:59;;;;;;;2.50;0.90;;;;;;;;;;5077160;28;20426;-72
2021/05/31 03:00:26;;;;;;;2.67;1.50;;;;;;;;;;5075903;28;20413;-71
2021/05/31 03:02:53;;;;;;;3.53;1.53;;;;;;;;;;5076733;28;20398;-71
2021/05/31 03:05:25;;;;;;;4.80;2.60;;;;;;;;;;5075852;28;20432;-72
2021/05/31 03:07:51;;;;;;;1.73;1.53;;;;;;;;;;5075773;28;20491;-71
2021/05/31 03:10:17;;;;;;;2.00;1.37;;;;;;;;;;5074907;28;20454;-71
2021/05/31 03:12:43;;;;;;;2.13;0.93;;;;;;;;;;5075509;28;20486;-71
2021/05/31 03:15:10;;;;;;;1.37;1.13;;;;;;;;;;5076267;28;20465;-72
2021/05/31 03:17:36;;;;;;;4.67;2.07;;;;;;;;;;5076091;28;20896;-71
2021/05/31 03:20:04;;;;;;;2.97;1.10;;;;;;;;;;5074522;28;20417;-71
2021/05/31 03:22:30;;;;;;;2.97;2.17;;;;;;;;;;5067421;28;20897;-71
2021/05/31 03:24:55;;;;;;;1.43;1.33;;;;;;;;;;5039267;28;20475;-71
2021/05/31 03:27:22;;;;;;;2.20;1.10;;;;;;;;;;5055586;28;20402;-71
2021/05/31 03:29:47;;;;;;;2.00;1.43;;;;;;;;;;5054591;28;20432;-72
2021/05/31 03:32:13;;;;;;;2.53;2.10;;;;;;;;;;5055672;28;20395;-72
2021/05/31 03:34:39;;;;;;;1.40;1.30;;;;;;;;;;5057933;28;21028;-71
2021/05/31 03:37:05;;;;;;;2.07;1.67;;;;;;;;;;5059910;28;20460;-71
2021/05/31 03:39:31;;;;;;;2.60;2.30;;;;;;;;;;5040514;28;20426;-71
2021/05/31 03:41:57;;;;;;;1.00;0.70;;;;;;;;;;5059306;28;20406;-71
2021/05/31 03:44:23;;;;;;;8.57;1.70;;;;;;;;;;5059365;28;20491;-71
2021/05/31 03:46:49;;;;;;;5.07;1.87;;;;;;;;;;5059713;28;20466;-72
2021/05/31 03:49:15;;;;;;;4.10;1.77;;;;;;;;;;5040151;28;20462;-72
2021/05/31 03:51:43;;;;;;;1.17;1.07;;;;;;;;;;5058627;28;20483;-71
2021/05/31 03:54:08;;;;;;;2.03;1.53;;;;;;;;;;5058981;28;20382;-71
2021/05/31 03:56:34;;;;;;;3.10;2.17;;;;;;;;;;5040160;28;20495;-72
2021/05/31 03:59:00;;;;;;;3.77;1.20;;;;;;;;;;5058769;28;20744;-71
2021/05/31 04:01:26;;;;;;;2.97;1.90;;;;;;;;;;5058851;28;20824;-72
2021/05/31 04:03:52;;;;;;;4.03;3.10;;;;;;;;;;5058161;28;20385;-71
2021/05/31 04:06:29;;;;;;;1.93;1.83;;;;;;;;;;5068952;28;20490;-72
2021/05/31 04:11:41;;;;;;;2.00;1.33;;;;;;;;;;5081169;28;20445;-72
2021/05/31 04:14:08;;;;;;;2.90;1.60;;;;;;;;;;5078647;28;20372;-71
2021/05/31 04:16:35;;;;;;;1.70;1.10;;;;;;;;;;5079536;28;20694;-72
2021/05/31 04:19:01;;;;;;;3.53;1.20;;;;;;;;;;5076530;28;20445;-71
2021/05/31 04:21:27;;;;;;;1.43;1.27;;;;;;;;;;5060460;28;20423;-72
2021/05/31 04:23:53;;;;;;;1.73;1.53;;;;;;;;;;5041758;28;20414;-72
2021/05/31 04:26:19;;;;;;;9.27;3.20;;;;;;;;;;5059443;28;20422;-70
2021/05/31 04:28:45;;;;;;;3.17;2.83;;;;;;;;;;5062978;28;20403;-70
2021/05/31 04:31:11;;;;;;;5.50;2.40;;;;;;;;;;5065643;28;20424;-70
2021/05/31 04:33:38;;;;;;;3.53;1.63;;;;;;;;;;5065371;28;20379;-71
2021/05/31 04:36:04;;;;;;;6.00;2.30;;;;;;;;;;5073284;28;20458;-73
2021/05/31 04:38:30;;;;;;;2.17;1.13;;;;;;;;;;5066094;28;20406;-72
2021/05/31 04:40:56;;;;;;;1.63;1.27;;;;;;;;;;5059366;28;21695;-72
2021/05/31 04:43:22;;;;;;;3.47;1.30;;;;;;;;;;5054247;28;20887;-70
2021/05/31 04:45:48;;;;;;;3.10;1.30;;;;;;;;;;5068996;28;20402;-71
2021/05/31 04:48:14;;;;;;;2.07;1.37;;;;;;;;;;5055755;28;20486;-71
2021/05/31 04:50:40;;;;;;;2.53;1.57;;;;;;;;;;5059803;28;20446;-71
2021/05/31 04:53:06;;;;;;;4.30;2.37;;;;;;;;;;5054981;28;20464;-72
2021/05/31 04:55:33;;;;;;;1.50;0.70;;;;;;;;;;5064619;28;20445;-72
2021/05/31 04:58:01;;;;;;;6.47;1.33;;;;;;;;;;5062498;28;20501;-70
2021/05/31 05:00:27;;;;;;;2.90;1.40;;;;;;;;;;5062882;28;20413;-70
2021/05/31 05:02:53;;;;;;;2.93;1.40;;;;;;;;;;5057921;28;20409;-70
2021/05/31 05:05:19;;;;;;;2.70;1.07;;;;;;;;;;5057728;28;20858;-70
2021/05/31 05:07:45;;;;;;;1.77;1.50;;;;;;;;;;5065947;28;20379;-70
2021/05/31 05:10:21;;;;;;;1.57;1.00;;;;;;;;;;5067382;28;20457;-70
2021/05/31 05:12:48;;;;;;;0.90;0.70;;;;;;;;;;5070521;28;20368;-70
2021/05/31 05:15:15;;;;;;;1.00;0.80;;;;;;;;;;5071988;28;20408;-71
2021/05/31 05:17:41;;;;;;;1.33;0.90;;;;;;;;;;5071844;28;20373;-70
2021/05/31 05:20:08;;;;;;;2.83;1.20;;;;;;;;;;5071565;28;20387;-71
2021/05/31 05:22:33;;;;;;;6.80;2.13;;;;;;;;;;5063511;28;20424;-71
2021/05/31 05:24:59;;;;;;;1.20;0.90;;;;;;;;;;5056510;28;20516;-71
2021/05/31 05:27:26;;;;;;;1.00;0.90;;;;;;;;;;5073295;28;20417;-72
2021/05/31 05:29:52;;;;;;;21.70;17.13;;;;;;;;;;5069648;28;20435;-71
2021/05/31 05:32:18;;;;;;;0.90;0.67;;;;;;;;;;5069967;28;20412;-72
2021/05/31 05:34:44;;;;;;;1.40;0.80;;;;;;;;;;5071857;28;20430;-71
2021/05/31 05:37:14;;;;;;;1.60;1.50;;;;;;;;;;5072473;28;20380;-70
2021/05/31 05:45:07;;;;;;;1.10;0.90;;;;;;;;;;5054122;28;20446;-72
2021/05/31 05:50:16;;;;;;;3.50;1.13;;;;;;;;;;5051035;28;20461;-71
2021/05/31 05:52:46;;;;;;;0.90;0.60;;;;;;;;;;5055273;28;20521;-71
2021/05/31 05:55:12;;;;;;;2.20;1.07;;;;;;;;;;5070906;28;20773;-71
2021/05/31 05:57:38;;;;;;;1.30;0.77;;;;;;;;;;5070700;28;20373;-71
2021/05/31 06:00:06;;;;;;;0.80;0.60;;;;;;;;;;5070451;28;20368;-70
2021/05/31 06:02:32;;;;;;;0.70;0.60;;;;;;;;;;5071272;28;20898;-71
2021/05/31 06:04:58;;;;;;;1.47;1.20;;;;;;;;;;5058042;28;20401;-71
2021/05/31 06:07:25;;;;;;;1.10;0.90;;;;;;;;;;5051227;28;20799;-71
2021/05/31 06:09:51;;;;;;;18.37;1.43;;;;;;;;;;5051533;28;20534;-71
2021/05/31 06:12:17;;;;;;;1.03;0.93;;;;;;;;;;5060375;28;20409;-71
2021/05/31 06:14:43;;;;;;;1.87;1.10;;;;;;;;;;5065515;28;20393;-73
2021/05/31 06:17:09;;;;;;;0.90;0.67;;;;;;;;;;5077437;28;20418;-72
2021/05/31 06:19:35;;;;;;;2.50;1.67;;;;;;;;;;5057795;28;20437;-72
2021/05/31 06:22:01;;;;;;;0.80;0.60;;;;;;;;;;5072095;28;20411;-72
2021/05/31 06:24:27;;;;;;;6.70;1.07;;;;;;;;;;5056765;28;20423;-72
2021/05/31 06:26:53;;;;;;;3.30;1.37;;;;;;;;;;5038292;28;20399;-73
2021/05/31 06:29:19;;;;;;;0.80;0.60;;;;;;;;;;5055350;28;20425;-72
2021/05/31 06:31:45;;;;;;;1.67;1.37;;;;;;;;;;5056151;28;20437;-72
2021/05/31 06:34:11;;;;;;;0.70;0.60;;;;;;;;;;5063181;28;20412;-72
2021/05/31 06:36:40;;;;;;;1.00;0.77;;;;;;;;;;5064813;28;20377;-73
2021/05/31 06:39:08;;;;;;;1.73;1.37;;;;;;;;;;5066084;28;20437;-73
2021/05/31 06:41:35;;;;;;;2.20;0.70;;;;;;;;;;5064184;28;20384;-72
2021/05/31 06:44:01;;;;;;;1.80;1.40;;;;;;;;;;5067964;28;20383;-73
2021/05/31 06:46:27;;;;;;;1.43;1.33;;;;;;;;;;5072122;28;20401;-72
2021/05/31 06:48:53;;;;;;;2.10;0.93;;;;;;;;;;5076010;28;20895;-73
2021/05/31 06:51:19;;;;;;;0.90;0.60;;;;;;;;;;5076081;28;20398;-73
2021/05/31 06:53:45;;;;;;;1.03;0.93;;;;;;;;;;5076677;28;20452;-73
2021/05/31 06:56:11;;;;;;;0.90;0.63;;;;;;;;;;5076166;28;20425;-73
2021/05/31 06:58:37;;;;;;;0.80;0.60;;;;;;;;;;5070283;28;20385;-72
2021/05/31 07:01:03;;;;;;;1.00;0.80;;;;;;;;;;5071082;28;20432;-72
2021/05/31 07:03:29;;;;;;;0.90;0.57;;;;;;;;;;5059280;28;20411;-72
2021/05/31 07:05:55;;;;;;;0.80;0.60;;;;;;;;;;5059004;28;20437;-72
2021/05/31 07:08:23;;;;;;;1.07;0.97;;;;;;;;;;5069990;28;20792;-72
2021/05/31 07:10:51;;;;;;;1.03;0.70;;;;;;;;;;5076085;28;20501;-71
2021/05/31 07:13:20;;;;;;;1.33;1.10;;;;;;;;;;5073406;28;20373;-71
2021/05/31 07:15:45;;;;;;;2.13;2.03;;;;;;;;;;5044264;28;20432;-72
2021/05/31 07:18:12;;;;;;;1.00;0.63;;;;;;;;;;5074529;28;20402;-72
2021/05/31 07:20:38;;;;;;;0.80;0.70;;;;;;;;;;5066512;28;20787;-72
2021/05/31 07:23:04;;;;;;;0.97;0.80;;;;;;;;;;5076357;28;20418;-74
2021/05/31 07:25:30;;;;;;;2.40;1.27;;;;;;;;;;5066850;28;20420;-72
2021/05/31 07:27:57;;;;;;;2.13;1.10;;;;;;;;;;5064375;28;20438;-72
2021/05/31 07:30:23;;;;;;;0.80;0.77;;;;;;;;;;5078263;28;20898;-73
2021/05/31 07:32:49;;;;;;;1.17;0.87;;;;;;;;;;5066526;28;20492;-72
2021/05/31 07:35:16;;;;;;;5.43;1.40;;;;;;;;;;5062604;28;20442;-72
2021/05/31 07:37:42;;;;;;;1.20;0.90;;;;;;;;;;5058841;28;20413;-72
2021/05/31 07:40:09;;;;;;;1.43;0.77;;;;;;;;;;5075225;28;20403;-72
2021/05/31 07:42:35;;;;;;;1.50;1.40;;;;;;;;;;5066597;28;20463;-71
2021/05/31 07:45:01;;;;;;;1.00;0.90;;;;;;;;;;5067812;28;20969;-73
2021/05/31 07:47:27;;;;;;;1.87;0.60;;;;;;;;;;5073124;28;20385;-72
2021/05/31 07:49:55;;;;;;;1.30;0.80;;;;;;;;;;5060781;28;20442;-71
2021/05/31 07:52:24;;;;;;;1.23;1.13;;;;;;;;;;5073297;28;20391;-71
2021/05/31 07:54:51;;;;;;;0.70;0.50;;;;;;;;;;5062139;28;20431;-72
2021/05/31 07:57:17;;;;;;;2.00;0.80;;;;;;;;;;5064364;28;20403;-73
2021/05/31 07:59:46;;;;;;;1.20;0.80;;;;;;;;;;5056792;28;20417;-71
2021/05/31 08:02:12;;;;;;;2.13;1.10;;;;;;;;;;5059195;28;20410;-72
2021/05/31 08:04:38;;;;;;;1.53;0.60;;;;;;;;;;5058265;28;20433;-73
2021/05/31 08:07:04;;;;;;;0.80;0.67;;;;;;;;;;5060272;28;20759;-72
2021/05/31 08:09:30;;;;;;;1.63;1.53;;;;;;;;;;5059803;28;20486;-71
2021/05/31 08:11:57;;;;;;;0.80;0.50;;;;;;;;;;5054086;28;20771;-72
2021/05/31 08:14:24;;;;;;;1.00;0.77;;;;;;;;;;5052624;28;20497;-72
2021/05/31 08:16:50;;;;;;;0.80;0.60;;;;;;;;;;5067127;28;20407;-72
2021/05/31 08:19:17;;;;;;;0.80;0.70;;;;;;;;;;5065264;28;20418;-72
2021/05/31 08:21:44;;;;;;;1.00;0.73;;;;;;;;;;5064553;28;21075;-71
2021/05/31 08:24:10;;;;;;;3.03;1.17;;;;;;;;;;5071982;28;20920;-72
2021/05/31 08:26:37;;;;;;;1.57;1.37;;;;;;;;;;5068280;28;20902;-71
2021/05/31 08:29:03;;;;;;;1.50;0.70;;;;;;;;;;5072137;28;20495;-72
2021/05/31 08:31:30;;;;;;;1.07;0.70;;;;;;;;;;5072623;28;20948;-72
2021/05/31 08:33:56;;;;;;;1.00;0.90;;;;;;;;;;5070757;28;20398;-71
2021/05/31 08:36:22;;;;;;;1.13;0.80;;;;;;;;;;5069472;28;20445;-72
2021/05/31 08:38:50;;;;;;;0.80;0.70;;;;;;;;;;5070895;28;20447;-71
2021/05/31 08:41:16;;;;;;;0.90;0.70;;;;;;;;;;5070362;28;20528;-71
2021/05/31 08:43:42;;;;;;;1.67;1.00;;;;;;;;;;5070590;28;20426;-72
2021/05/31 08:46:08;;;;;;;3.20;2.33;;;;;;;;;;5066935;28;20426;-72
2021/05/31 08:48:34;;;;;;;1.37;0.90;;;;;;;;;;5067673;28;20390;-72
2021/05/31 08:51:00;;;;;;;2.07;1.33;;;;;;;;;;5070452;28;20496;-71
2021/05/31 08:53:26;;;;;;;0.80;0.60;;;;;;;;;;5068953;28;20413;-72
2021/05/31 08:55:52;;;;;;;1.20;0.90;;;;;;;;;;5069799;28;20384;-72
2021/05/31 08:58:19;;;;;;;1.53;1.00;;;;;;;;;;5061099;28;20395;-72
2021/05/31 09:00:45;;;;;;;1.20;1.00;;;;;;;;;;5059347;28;20849;-71
2021/05/31 09:03:11;;;;;;;1.80;0.97;;;;;;;;;;5059777;28;20411;-72
2021/05/31 09:05:39;;;;;;;0.90;0.60;;;;;;;;;;5055808;28;20469;-71
2021/05/31 09:08:08;;;;;;;1.20;1.03;;;;;;;;;;5067926;28;20204;-72
2021/05/31 09:10:38;;;;;;;0.90;0.53;;;;;;;;;;5065382;28;20481;-72
2021/05/31 09:13:04;;;;;;;1.57;0.83;;;;;;;;;;5070432;28;20409;-72
2021/05/31 09:15:30;;;;;;;1.20;0.60;;;;;;;;;;5062534;28;20398;-72
2021/05/31 09:17:56;;;;;;;1.43;0.80;;;;;;;;;;5079479;22;20441;-75
2021/05/31 09:20:26;;;;;;;2.50;0.80;;;;;;;;;;5059169;28;20454;-75
2021/05/31 09:22:56;;;;;;;1.33;0.97;;;;;;;;;;5052490;28;20422;-76
2021/05/31 09:25:29;;;;;;;1.13;0.80;;;;;;;;;;5040580;28;20438;-77
2021/05/31 09:27:54;;;;;;;1.07;0.77;;;;;;;;;;5067928;28;20410;-73
2021/05/31 09:30:31;;;;;;;1.73;0.80;;;;;;;;;;5040396;28;20455;-74
2021/05/31 09:32:57;;;;;;;0.80;0.60;;;;;;;;;;5038286;28;20411;-74
2021/05/31 09:35:23;;;;;;;1.67;1.10;;;;;;;;;;5059445;28;20469;-74
2021/05/31 09:37:50;;;;;;;1.00;0.90;;;;;;;;;;5041950;28;20276;-74
2021/05/31 09:40:23;;;;;;;0.90;0.80;;;;;;;;;;5061277;28;20450;-73
2021/05/31 09:42:50;;;;;;;1.40;0.87;;;;;;;;;;5058515;28;20843;-73
2021/05/31 09:45:16;;;;;;;0.90;0.80;;;;;;;;;;5041705;28;20794;-74
2021/05/31 09:47:42;;;;;;;1.70;1.10;;;;;;;;;;5058268;28;20445;-74
2021/05/31 09:50:09;;;;;;;1.53;1.00;;;;;;;;;;5046671;28;20530;-74
2021/05/31 09:52:36;;;;;;;3.10;1.70;;;;;;;;;;5041401;28;20441;-74
2021/05/31 09:55:03;;;;;;;3.37;0.83;;;;;;;;;;5046226;28;20382;-75
2021/05/31 09:57:30;;;;;;;4.03;1.33;;;;;;;;;;5059651;28;20419;-75
2021/05/31 10:00:14;;;;;;;2.30;0.80;;;;;;;;;;5060876;28;20422;-74
2021/05/31 10:02:59;;;;;;;0.93;0.87;;;;;;;;;;5061426;28;20411;-76
2021/05/31 10:10:40;;;;;;;2.03;1.17;;;;;;;;;;5066289;28;20459;-75
2021/05/31 10:13:10;;;;;;;0.80;0.80;;;;;;;;;;5042765;28;20460;-75
2021/05/31 10:15:39;;;;;;;1.03;0.90;;;;;;;;;;5065980;28;20449;-77
2021/05/31 10:18:06;;;;;;;1.30;1.00;;;;;;;;;;5070328;28;20899;-78
2021/05/31 10:20:32;;;;;;;1.23;0.70;;;;;;;;;;5068485;28;20398;-77
2021/05/31 10:22:58;;;;;;;4.00;1.10;;;;;;;;;;5046222;28;20801;-77
2021/05/31 10:25:31;;;;;;;1.20;0.80;;;;;;;;;;5062416;28;20474;-77
2021/05/31 10:28:00;;;;;;;1.83;1.07;;;;;;;;;;5066241;28;20414;-76
2021/05/31 10:30:26;;;;;;;0.80;0.60;;;;;;;;;;5052171;28;21050;-74
2021/05/31 10:32:52;;;;;;;2.30;1.00;;;;;;;;;;5054980;28;20411;-76
2021/05/31 10:35:22;;;;;;;0.80;0.80;;;;;;;;;;5054045;28;20423;-76
2021/05/31 10:37:53;;;;;;;1.40;0.90;;;;;;;;;;5058320;28;20441;-73
2021/05/31 10:40:19;;;;;;;1.00;0.90;;;;;;;;;;5069481;28;20411;-73
2021/05/31 10:42:50;;;;;;;1.50;1.00;;;;;;;;;;5032778;28;20423;-72
2021/05/31 10:45:25;;;;;;;0.90;0.77;;;;;;;;;;5037327;28;20453;-73
2021/05/31 10:48:11;;;;;;;1.27;1.13;;;;;;;;;;5059370;28;20406;-73
2021/05/31 10:50:44;;;;;;;2.30;0.80;;;;;;;;;;5054806;28;20477;-74
2021/05/31 10:53:29;;;;;;;;;;;;;;;;;;;;;
2021/05/31 10:56:04;;;;;;;2.27;2.07;;;;;;;;;;5050262;28;20426;-73
2021/05/31 10:58:35;;;;;;;1.03;0.87;;;;;;;;;;5052711;28;20952;-76
2021/05/31 11:01:07;;;;;;;1.93;1.53;;;;;;;;;;5057814;28;20441;-75
2021/05/31 11:03:44;;;;;;;1.07;0.90;;;;;;;;;;5073321;28;20809;-75
2021/05/31 11:06:14;;;;;;;1.10;0.73;;;;;;;;;;5070919;28;20417;-77
2021/05/31 11:08:47;;;;;;;0.83;0.63;;;;;;;;;;5054066;28;20442;-75
2021/05/31 11:11:23;;;;;;;1.10;0.80;;;;;;;;;;5051118;28;20398;-77
2021/05/31 11:13:49;;;;;;;1.00;0.90;;;;;;;;;;5060892;28;20398;-74
2021/05/31 11:16:15;;;;;;;2.87;2.07;;;;;;;;;;5051770;28;20450;-74
2021/05/31 11:18:43;;;;;;;2.03;1.10;;;;;;;;;;5033761;28;20470;-74
2021/05/31 11:21:09;;;;;;;1.00;0.80;;;;;;;;;;5051721;28;20406;-75
2021/05/31 11:23:36;;;;;;;2.23;1.73;;;;;;;;;;5042644;28;20410;-74
2021/05/31 11:26:02;;;;;;;3.03;1.20;;;;;;;;;;5064335;28;20423;-75
2021/05/31 11:28:28;;;;;;;1.00;0.90;;;;;;;;;;5059472;28;20387;-76
2021/05/31 11:30:55;;;;;;;0.80;0.70;;;;;;;;;;5060185;28;20963;-75
2021/05/31 11:33:21;;;;;;;1.37;0.80;;;;;;;;;;5056095;28;20414;-75
2021/05/31 11:35:48;;;;;;;1.40;1.20;;;;;;;;;;5034360;28;20431;-78
2021/05/31 11:38:19;;;;;;;1.60;1.10;;;;;;;;;;5031463;28;20499;-73
2021/05/31 11:40:46;;;;;;;1.23;1.13;;;;;;;;;;5032214;28;20415;-73
2021/05/31 11:43:14;;;;;;;1.10;0.90;;;;;;;;;;5030937;28;20411;-72
2021/05/31 11:45:41;;;;;;;0.87;0.80;;;;;;;;;;5053874;28;20423;-76
2021/05/31 11:48:08;;;;;;;4.03;1.17;;;;;;;;;;5052897;28;20407;-76
2021/05/31 11:50:35;;;;;;;1.10;0.90;;;;;;;;;;5059898;28;20517;-75
2021/05/31 11:53:01;;;;;;;2.40;1.10;;;;;;;;;;5065440;28;20816;-79
2021/05/31 11:55:29;;;;;;;1.40;1.10;;;;;;;;;;5035279;28;20445;-76
2021/05/31 11:57:55;;;;;;;3.83;1.17;;;;;;;;;;5054957;28;20958;-76
2021/05/31 12:00:26;;;;;;;0.83;0.70;;;;;;;;;;5054229;28;21006;-78
2021/05/31 12:02:52;;;;;;;2.60;1.37;;;;;;;;;;5061154;28;20409;-76
2021/05/31 12:05:29;;;;;;;1.10;0.70;;;;;;;;;;5067702;28;20850;-76
2021/05/31 12:08:00;;;;;;;1.30;0.90;;;;;;;;;;5053014;28;20947;-76
2021/05/31 12:10:26;;;;;;;13.70;3.00;;;;;;;;;;5053887;28;20486;-76
2021/05/31 12:12:52;;;;;;;;;;;;;;;;;;5054604;28;20230;-76
2021/05/31 12:15:18;;;;;;;2.75;1.88;;;;;;;;;;5066887;28;20397;-77
2021/05/31 12:17:45;;;;;;;3.53;1.00;;;;;;;;;;5050330;28;20251;-77
2021/05/31 12:20:13;;;;;;;1.13;0.80;;;;;;;;;;5035253;28;20411;-77
2021/05/31 12:22:40;;;;;;;2.27;0.90;;;;;;;;;;5053619;28;20414;-77
2021/05/31 12:25:08;;;;;;;1.63;1.20;;;;;;;;;;5058419;28;20873;-77
2021/05/31 12:27:35;;;;;;;1.60;1.30;;;;;;;;;;5061369;28;20911;-76
2021/05/31 12:30:03;;;;;;;1.57;1.07;;;;;;;;;;5055498;28;20442;-77
2021/05/31 12:32:29;;;;;;;1.83;1.10;;;;;;;;;;5053536;28;21078;-76
2021/05/31 12:34:58;;;;;;;1.10;1.00;;;;;;;;;;5053678;28;20491;-76
2021/05/31 12:37:26;;;;;;;1.73;1.10;;;;;;;;;;5035704;28;20411;-78
2021/05/31 12:39:52;;;;;;;1.87;1.10;;;;;;;;;;5056367;28;20413;-78
2021/05/31 12:42:25;;;;;;;12.03;1.57;;;;;;;;;;5056860;28;20913;-79
2021/05/31 12:44:51;;;;;;;1.30;1.10;;;;;;;;;;5056922;28;20414;-78
2021/05/31 12:47:18;;;;;;;1.50;1.07;;;;;;;;;;5047210;28;20773;-75
2021/05/31 12:49:46;;;;;;;1.00;0.77;;;;;;;;;;5064414;28;20966;-82
2021/05/31 12:52:14;;;;;;;0.93;0.70;;;;;;;;;;5071842;28;20418;-76
2021/05/31 12:54:41;;;;;;;1.40;0.90;;;;;;;;;;5064050;28;20502;-75
2021/05/31 12:57:08;;;;;;;2.13;1.40;;;;;;;;;;5064073;28;20988;-74
2021/05/31 12:59:34;;;;;;;1.30;1.13;;;;;;;;;;5044315;28;21001;-74
2021/05/31 13:02:00;;;;;;;1.50;1.00;;;;;;;;;;5053842;28;20412;-74
2021/05/31 13:04:28;;;;;;;1.03;0.80;;;;;;;;;;5052837;28;20493;-74
2021/05/31 13:06:53;;;;;;;3.00;1.53;;;;;;;;;;5047582;28;20485;-74
2021/05/31 13:09:26;;;;;;;2.40;1.40;;;;;;;;;;5051738;28;20451;-75
2021/05/31 13:11:52;;;;;;;1.00;0.90;;;;;;;;;;5038548;28;20419;-76
2021/05/31 13:14:20;;;;;;;1.03;0.93;;;;;;;;;;5052182;28;20540;-75
2021/05/31 13:17:12;;;;;;;1.27;1.13;;;;;;;;;;5055407;28;20419;-76
2021/05/31 13:19:40;;;;;;;2.73;0.93;;;;;;;;;;5049105;28;20730;-83
2021/05/31 13:22:18;;;;;;;1.13;1.03;;;;;;;;;;5053286;28;20529;-77
2021/05/31 13:24:50;;;;;;;1.23;0.97;;;;;;;;;;5055400;28;20407;-78
2021/05/31 13:27:18;;;;;;;3.90;3.37;;;;;;;;;;5035517;28;20476;-76
2021/05/31 13:30:05;;;;;;;1.17;0.90;;;;;;;;;;5037365;28;20481;-74
2021/05/31 13:32:31;;;;;;;1.43;1.33;;;;;;;;;;5057880;28;20411;-73
2021/05/31 13:34:59;;;;;;;3.77;1.57;;;;;;;;;;5052496;28;20475;-73
2021/05/31 13:37:25;;;;;;;1.97;1.20;;;;;;;;;;5052890;28;20911;-77
2021/05/31 13:39:54;;;;;;;1.90;1.30;;;;;;;;;;5052563;28;20406;-74
2021/05/31 13:42:20;;;;;;;3.10;1.47;;;;;;;;;;5051661;28;20402;-73
2021/05/31 13:44:46;;;;;;;2.47;1.43;;;;;;;;;;5051224;28;20414;-74
2021/05/31 13:47:12;;;;;;;0.93;0.83;;;;;;;;;;5052534;28;20919;-78
2021/05/31 13:49:39;;;;;;;1.50;1.07;;;;;;;;;;5037091;28;20537;-75
2021/05/31 13:52:05;;;;;;;1.50;1.40;;;;;;;;;;5035532;28;20412;-76
2021/05/31 13:54:33;;;;;;;3.00;1.10;;;;;;;;;;5051650;28;20399;-76
2021/05/31 13:56:59;;;;;;;1.87;1.40;;;;;;;;;;5059894;28;20426;-74
2021/05/31 13:59:25;;;;;;;2.53;1.10;;;;;;;;;;5055165;28;20767;-74
2021/05/31 14:01:53;;;;;;;2.30;1.20;;;;;;;;;;5032655;28;20415;-75
2021/05/31 14:04:19;;;;;;;0.90;0.80;;;;;;;;;;5042371;28;20509;-81
2021/05/31 14:06:45;;;;;;;1.87;1.60;;;;;;;;;;5042314;28;21136;-78
2021/05/31 14:09:11;;;;;;;2.20;1.47;;;;;;;;;;5052692;28;20445;-78
2021/05/31 14:11:37;;;;;;;1.43;1.27;;;;;;;;;;5053306;28;20770;-73
2021/05/31 14:14:04;;;;;;;1.63;1.13;;;;;;;;;;5051612;28;20415;-76
2021/05/31 14:16:30;;;;;;;0.93;0.83;;;;;;;;;;5050505;28;20462;-76
2021/05/31 14:18:58;;;;;;;1.60;1.00;;;;;;;;;;5033609;28;20415;-78
2021/05/31 14:21:24;;;;;;;1.77;1.43;;;;;;;;;;5052500;28;20772;-76
2021/05/31 14:23:50;;;;;;;3.37;1.20;;;;;;;;;;5051221;28;20416;-76
2021/05/31 14:26:16;;;;;;;1.73;1.10;;;;;;;;;;5034940;28;20455;-73
2021/05/31 14:28:42;;;;;;;1.70;1.10;;;;;;;;;;5047605;28;20414;-74
2021/05/31 14:31:08;;;;;;;1.73;1.23;;;;;;;;;;5032914;28;20447;-75
2021/05/31 14:33:34;;;;;;;1.30;1.00;;;;;;;;;;5051292;28;20847;-74
2021/05/31 14:36:01;;;;;;;3.20;2.40;;;;;;;;;;5063181;28;20458;-74
2021/05/31 14:38:29;;;;;;;1.70;1.17;;;;;;;;;;5071146;28;20412;-75
2021/05/31 14:40:57;;;;;;;1.40;1.07;;;;;;;;;;5053112;28;20426;-75
2021/05/31 14:43:23;;;;;;;1.50;1.20;;;;;;;;;;5051345;28;20931;-75
2021/05/31 14:45:49;;;;;;;1.23;1.00;;;;;;;;;;5053505;28;20509;-76
2021/05/31 14:48:17;;;;;;;2.70;1.33;;;;;;;;;;5070091;28;20758;-76
2021/05/31 14:50:43;;;;;;;4.20;1.40;;;;;;;;;;5072245;28;20461;-76
2021/05/31 14:53:10;;;;;;;1.70;1.47;;;;;;;;;;5066400;28;20444;-75
2021/05/31 14:55:36;;;;;;;2.07;1.20;;;;;;;;;;5051284;28;20419;-75
2021/05/31 14:58:05;;;;;;;3.10;2.23;;;;;;;;;;5051765;28;20411;-75
2021/05/31 15:00:31;;;;;;;3.07;1.50;;;;;;;;;;5050347;28;20481;-76